createdAt,value
2022-09-18T00:00:05.787Z,78.65
2022-09-18T00:03:04.348Z,78.70
2022-09-18T00:05:38.696Z,78.73
2022-09-18T00:08:11.531Z,78.72
2022-09-18T00:10:46.745Z,78.81
2022-09-18T00:13:18.948Z,78.84
2022-09-18T00:15:58.452Z,78.93
2022-09-18T00:18:30.803Z,78.99
2022-09-18T00:21:08.524Z,78.89
2022-09-18T00:23:41.676Z,78.89
2022-09-18T00:26:15.309Z,78.92
2022-09-18T00:28:47.411Z,78.87
2022-09-18T00:31:22.073Z,79.01
2022-09-18T00:33:54.307Z,78.87
2022-09-18T00:36:27.210Z,79.04
2022-09-18T00:39:00.974Z,79.05
2022-09-18T00:41:35.330Z,79.10
2022-09-18T00:44:39.011Z,79.12
2022-09-18T00:47:24.300Z,79.27
2022-09-18T00:50:03.427Z,79.24
2022-09-18T00:52:45.823Z,79.22
2022-09-18T00:55:22.551Z,79.39
2022-09-18T00:57:58.699Z,79.35
2022-09-18T01:00:32.272Z,79.36
2022-09-18T01:03:04.939Z,79.35
2022-09-18T01:05:53.004Z,79.36
2022-09-18T01:08:39.544Z,79.43
2022-09-18T01:11:28.995Z,79.45
2022-09-18T01:14:14.379Z,79.51
2022-09-18T01:16:54.266Z,79.53
2022-09-18T01:19:42.364Z,79.53
2022-09-18T01:22:32.344Z,79.59
2022-09-18T01:25:18.395Z,79.67
2022-09-18T01:28:02.400Z,79.76
2022-09-18T01:30:38.126Z,79.82
2022-09-18T01:33:19.452Z,80.00
2022-09-18T01:35:58.455Z,79.98
2022-09-18T01:38:34.746Z,79.93
2022-09-18T01:41:11.294Z,80.09
2022-09-18T01:43:45.635Z,80.11
2022-09-18T01:46:21.160Z,80.11
2022-09-18T01:48:59.636Z,80.12
2022-09-18T01:51:37.497Z,80.24
2022-09-18T01:54:15.730Z,80.23
2022-09-18T01:56:53.979Z,80.44
2022-09-18T01:59:31.137Z,80.45
2022-09-18T02:02:20.007Z,80.47
2022-09-18T02:04:59.895Z,80.35
2022-09-18T02:07:40.664Z,80.38
2022-09-18T02:10:12.981Z,80.48
2022-09-18T02:12:46.834Z,80.42
2022-09-18T02:15:19.770Z,80.49
2022-09-18T02:18:03.322Z,80.47
2022-09-18T02:20:46.179Z,80.52
2022-09-18T02:23:19.390Z,80.59
2022-09-18T02:25:57.130Z,80.64
2022-09-18T02:28:31.099Z,80.70
2022-09-18T02:31:03.584Z,80.77
2022-09-18T02:33:38.933Z,80.87
2022-09-18T02:36:25.976Z,80.97
2022-09-18T02:39:08.912Z,80.97
2022-09-18T02:41:50.642Z,81.03
2022-09-18T02:44:32.144Z,81.25
2022-09-18T02:47:15.108Z,81.25
2022-09-18T02:49:57.962Z,81.39
2022-09-18T02:52:34.907Z,81.40
2022-09-18T02:55:13.039Z,81.54
2022-09-18T02:57:50.641Z,81.54
2022-09-18T03:00:23.288Z,81.52
2022-09-18T03:03:00.299Z,81.46
2022-09-18T03:05:40.185Z,81.57
2022-09-18T03:08:12.288Z,81.53
2022-09-18T03:10:44.479Z,81.54
2022-09-18T03:13:17.072Z,81.64
2022-09-18T03:15:49.231Z,81.61
2022-09-18T03:18:22.065Z,81.53
2022-09-18T03:20:54.519Z,81.61
2022-09-18T03:23:27.412Z,81.62
2022-09-18T03:26:08.762Z,81.61
2022-09-18T03:28:41.092Z,81.61
2022-09-18T03:31:13.645Z,81.74
2022-09-18T03:33:45.885Z,81.70
2022-09-18T03:36:18.685Z,81.84
2022-09-18T03:38:51.151Z,81.74
2022-09-18T03:41:24.218Z,81.69
2022-09-18T03:43:56.591Z,81.77
2022-09-18T03:46:28.862Z,81.61
2022-09-18T03:49:03.931Z,81.73
2022-09-18T03:51:38.901Z,81.69
2022-09-18T03:54:14.669Z,81.71
2022-09-18T03:56:55.631Z,81.70
2022-09-18T03:59:46.373Z,81.68
2022-09-18T04:02:38.761Z,81.60
2022-09-18T04:05:43.462Z,81.65
2022-09-18T04:08:36.658Z,81.65
2022-09-18T04:11:24.635Z,81.56
2022-09-18T04:13:58.341Z,81.64
2022-09-18T04:16:30.436Z,81.71
2022-09-18T04:19:02.970Z,81.78
2022-09-18T04:21:35.071Z,81.94
2022-09-18T04:24:07.531Z,81.77
2022-09-18T04:26:41.394Z,81.80
2022-09-18T04:29:14.250Z,81.66
2022-09-18T04:31:46.372Z,81.79
2022-09-18T04:34:20.056Z,81.91
2022-09-18T04:36:53.379Z,81.84
2022-09-18T04:39:25.567Z,81.71
2022-09-18T04:41:57.581Z,81.71
2022-09-18T04:44:30.462Z,81.91
2022-09-18T04:47:03.183Z,81.74
2022-09-18T04:49:35.506Z,81.72
2022-09-18T04:52:07.589Z,81.74
2022-09-18T04:54:40.828Z,81.57
2022-09-18T04:57:13.441Z,81.49
2022-09-18T04:59:46.482Z,81.61
2022-09-18T05:02:19.310Z,81.50
2022-09-18T05:04:51.814Z,81.48
2022-09-18T05:07:31.723Z,81.59
2022-09-18T05:10:05.070Z,81.34
2022-09-18T05:12:40.762Z,81.37
2022-09-18T05:15:13.898Z,81.15
2022-09-18T05:17:46.267Z,81.18
2022-09-18T05:20:19.639Z,81.04
2022-09-18T05:22:52.574Z,81.05
2022-09-18T05:25:30.237Z,81.02
2022-09-18T05:28:03.926Z,81.14
2022-09-18T05:30:47.017Z,80.97
2022-09-18T05:33:19.578Z,80.99
2022-09-18T05:35:56.666Z,80.96
2022-09-18T05:38:29.374Z,80.97
2022-09-18T05:41:03.733Z,80.99
2022-09-18T05:43:36.116Z,81.02
2022-09-18T05:46:12.737Z,81.00
2022-09-18T05:48:51.308Z,80.93
2022-09-18T05:51:24.226Z,80.86
2022-09-18T05:53:56.611Z,80.95
2022-09-18T05:56:41.510Z,80.91
2022-09-18T05:59:15.017Z,80.85
2022-09-18T06:01:48.898Z,80.59
2022-09-18T06:04:24.755Z,80.66
2022-09-18T06:07:01.574Z,80.59
2022-09-18T06:09:33.967Z,80.56
2022-09-18T06:12:06.529Z,80.42
2022-09-18T06:14:46.369Z,80.37
2022-09-18T06:17:19.751Z,80.28
2022-09-18T06:19:52.782Z,80.29
2022-09-18T06:22:25.054Z,80.18
2022-09-18T06:24:57.160Z,79.88
2022-09-18T06:27:36.217Z,79.71
2022-09-18T06:30:10.442Z,79.68
2022-09-18T06:32:42.528Z,79.80
2022-09-18T06:35:14.809Z,79.66
2022-09-18T06:37:47.482Z,79.81
2022-09-18T06:40:40.576Z,79.62
2022-09-18T06:43:24.456Z,79.43
2022-09-18T06:46:14.973Z,79.46
2022-09-18T06:48:50.949Z,79.33
2022-09-18T06:51:23.134Z,79.19
2022-09-18T06:54:15.641Z,79.09
2022-09-18T06:56:49.871Z,78.95
2022-09-18T06:59:23.549Z,79.06
2022-09-18T07:01:56.548Z,78.97
2022-09-18T07:04:49.698Z,79.07
2022-09-18T07:07:22.713Z,78.83
2022-09-18T07:09:55.637Z,78.88
2022-09-18T07:12:58.487Z,78.69
2022-09-18T07:15:30.973Z,78.68
2022-09-18T07:18:05.106Z,78.75
2022-09-18T07:20:37.511Z,78.84
2022-09-18T07:23:09.941Z,78.90
2022-09-18T07:25:50.253Z,78.79
2022-09-18T07:28:22.825Z,78.87
2022-09-18T07:31:06.471Z,78.87
2022-09-18T07:33:37.378Z,78.93
2022-09-18T07:36:10.446Z,79.09
2022-09-18T07:38:43.369Z,79.06
2022-09-18T07:41:16.530Z,79.21
2022-09-18T07:43:51.939Z,79.13
2022-09-18T07:46:24.370Z,79.14
2022-09-18T07:48:58.092Z,79.33
2022-09-18T07:51:32.810Z,79.43
2022-09-18T07:54:05.102Z,79.42
2022-09-18T07:56:51.073Z,79.55
2022-09-18T07:59:25.730Z,79.64
2022-09-18T08:02:02.251Z,79.63
2022-09-18T08:04:36.612Z,79.82
2022-09-18T08:07:28.860Z,79.85
2022-09-18T08:10:13.791Z,79.54
2022-09-18T08:13:05.266Z,79.71
2022-09-18T08:15:54.662Z,79.62
2022-09-18T08:18:45.642Z,79.38
2022-09-18T08:21:35.312Z,79.43
2022-09-18T08:24:13.062Z,79.48
2022-09-18T08:26:45.822Z,79.32
2022-09-18T08:29:20.013Z,79.10
2022-09-18T08:32:05.495Z,79.07
2022-09-18T08:34:42.175Z,78.94
2022-09-18T08:37:16.081Z,78.44
2022-09-18T08:40:11.048Z,78.29
2022-09-18T08:43:10.759Z,78.36
2022-09-18T08:45:56.083Z,78.19
2022-09-18T08:48:32.477Z,78.24
2022-09-18T08:51:14.139Z,78.09
2022-09-18T08:53:51.806Z,77.63
2022-09-18T08:56:44.134Z,77.27
2022-09-18T08:59:30.954Z,77.10
2022-09-18T09:02:18.515Z,77.01
2022-09-18T09:04:54.295Z,76.76
2022-09-18T09:07:46.201Z,76.33
2022-09-18T09:10:35.157Z,76.04
2022-09-18T09:13:26.293Z,75.96
2022-09-18T09:16:06.623Z,76.17
2022-09-18T09:18:49.615Z,76.30
2022-09-18T09:21:25.359Z,76.04
2022-09-18T09:24:17.312Z,75.86
2022-09-18T09:27:20.956Z,75.64
2022-09-18T09:30:14.685Z,75.30
2022-09-18T09:33:17.835Z,74.76
2022-09-18T09:36:12.844Z,74.51
2022-09-18T09:38:56.126Z,73.53
2022-09-18T09:41:35.316Z,72.02
2022-09-18T09:44:23.272Z,72.05
2022-09-18T09:47:02.441Z,72.19
2022-09-18T09:49:45.095Z,71.28
2022-09-18T09:52:23.191Z,69.47
2022-09-18T09:55:02.604Z,68.28
2022-09-18T09:57:41.811Z,66.82
2022-09-18T10:00:19.444Z,65.82
2022-09-18T10:03:11.156Z,65.29
2022-09-18T10:05:53.884Z,64.63
2022-09-18T10:08:33.337Z,64.92
2022-09-18T10:11:11.305Z,64.82
2022-09-18T10:13:50.269Z,64.52
2022-09-18T10:16:26.058Z,64.09
2022-09-18T10:19:00.938Z,64.19
2022-09-18T10:21:36.733Z,64.34
2022-09-18T10:24:15.746Z,64.57
2022-09-18T10:26:52.845Z,64.72
2022-09-18T10:29:25.049Z,64.61
2022-09-18T10:32:01.430Z,64.64
2022-09-18T10:34:45.273Z,64.56
2022-09-18T10:37:38.017Z,64.71
2022-09-18T10:40:33.205Z,64.79
2022-09-18T10:43:06.622Z,64.63
2022-09-18T10:45:42.703Z,64.60
2022-09-18T10:48:27.492Z,64.63
2022-09-18T10:51:01.666Z,64.24
2022-09-18T10:54:06.792Z,64.33
2022-09-18T10:56:55.530Z,64.15
2022-09-18T10:59:38.446Z,64.01
2022-09-18T11:02:21.935Z,64.05
2022-09-18T11:04:54.781Z,64.21
2022-09-18T11:07:28.180Z,63.95
2022-09-18T11:10:10.049Z,63.92
2022-09-18T11:12:55.571Z,63.94
2022-09-18T11:15:33.986Z,63.91
2022-09-18T11:18:15.894Z,63.96
2022-09-18T11:20:52.101Z,63.90
2022-09-18T11:23:31.484Z,63.69
2022-09-18T11:26:20.508Z,63.48
2022-09-18T11:29:02.368Z,63.55
2022-09-18T11:31:48.223Z,63.54
2022-09-18T11:34:28.994Z,63.68
2022-09-18T11:37:06.535Z,63.53
2022-09-18T11:39:42.838Z,63.46
2022-09-18T11:42:19.896Z,63.31
2022-09-18T11:44:52.793Z,63.27
2022-09-18T11:47:35.906Z,63.25
2022-09-18T11:50:15.314Z,63.26
2022-09-18T11:52:51.568Z,62.91
2022-09-18T11:55:32.389Z,62.64
2022-09-18T11:58:07.507Z,62.62
2022-09-18T12:00:44.770Z,62.48
2022-09-18T12:03:23.125Z,62.62
2022-09-18T12:05:59.876Z,62.27
2022-09-18T12:08:44.464Z,62.26
2022-09-18T12:11:26.330Z,62.32
2022-09-18T12:14:14.821Z,62.35
2022-09-18T12:17:00.804Z,62.31
2022-09-18T12:19:39.223Z,62.40
2022-09-18T12:22:18.594Z,62.28
2022-09-18T12:24:51.666Z,62.23
2022-09-18T12:27:39.927Z,62.26
2022-09-18T12:30:14.820Z,62.27
2022-09-18T12:33:03.545Z,62.21
2022-09-18T12:35:49.322Z,61.95
2022-09-18T12:38:36.149Z,61.79
2022-09-18T12:41:33.411Z,62.01
2022-09-18T12:44:33.518Z,62.06
2022-09-18T12:47:24.639Z,61.95
2022-09-18T12:50:22.296Z,61.97
2022-09-18T12:53:09.869Z,61.98
2022-09-18T12:56:02.488Z,61.87
2022-09-18T12:58:51.260Z,62.06
2022-09-18T13:01:33.433Z,61.87
2022-09-18T13:04:14.551Z,61.95
2022-09-18T13:06:51.075Z,61.91
2022-09-18T13:09:29.227Z,62.26
2022-09-18T13:12:04.419Z,62.51
2022-09-18T13:14:44.312Z,62.73
2022-09-18T13:17:22.525Z,62.91
2022-09-18T13:20:01.630Z,62.99
2022-09-18T13:22:38.125Z,63.25
2022-09-18T13:25:29.335Z,63.27
2022-09-18T13:28:04.885Z,63.38
2022-09-18T13:30:37.332Z,63.63
2022-09-18T13:33:25.853Z,63.99
2022-09-18T13:35:59.764Z,63.92
2022-09-18T13:38:35.031Z,63.78
2022-09-18T13:41:10.202Z,63.49
2022-09-18T13:43:45.765Z,63.51
2022-09-18T13:46:37.332Z,63.68
2022-09-18T13:49:29.994Z,63.52
2022-09-18T13:52:42.777Z,63.44
2022-09-18T13:55:51.136Z,63.36
2022-09-18T13:58:54.594Z,63.47
2022-09-18T14:01:57.412Z,63.65
2022-09-18T14:05:02.979Z,63.36
2022-09-18T14:07:55.871Z,63.67
2022-09-18T14:10:32.024Z,63.89
2022-09-18T14:13:52.009Z,63.99
2022-09-18T14:16:38.908Z,63.94
2022-09-18T14:19:38.026Z,64.13
2022-09-18T14:22:25.808Z,64.30
2022-09-18T14:25:00.748Z,64.48
2022-09-18T14:27:49.992Z,64.82
2022-09-18T14:30:25.411Z,65.02
2022-09-18T14:33:04.491Z,65.21
2022-09-18T14:35:46.924Z,65.47
2022-09-18T14:38:28.634Z,65.62
2022-09-18T14:41:19.117Z,65.80
2022-09-18T14:44:31.666Z,66.10
2022-09-18T14:47:03.351Z,66.60
2022-09-18T14:49:40.670Z,66.81
2022-09-18T14:52:23.763Z,66.94
2022-09-18T14:54:59.033Z,67.25
2022-09-18T14:57:37.258Z,67.38
2022-09-18T15:00:18.095Z,67.48
2022-09-18T15:02:56.519Z,67.82
2022-09-18T15:05:30.814Z,67.82
2022-09-18T15:08:08.132Z,68.05
2022-09-18T15:10:41.697Z,68.16
2022-09-18T15:13:16.473Z,68.33
2022-09-18T15:15:49.335Z,68.41
2022-09-18T15:18:23.779Z,68.57
2022-09-18T15:20:58.342Z,68.72
2022-09-18T15:23:33.822Z,68.93
2022-09-18T15:26:14.632Z,68.93
2022-09-18T15:28:50.203Z,68.95
2022-09-18T15:31:24.638Z,69.12
2022-09-18T15:34:01.211Z,69.23
2022-09-18T15:36:35.599Z,69.19
2022-09-18T15:39:15.873Z,69.45
2022-09-18T15:41:48.130Z,69.62
2022-09-18T15:47:50.657Z,69.68
2022-09-18T15:50:37.883Z,69.86
2022-09-18T15:53:24.694Z,70.00
2022-09-18T15:56:00.687Z,70.07
2022-09-18T15:58:40.801Z,70.18
2022-09-18T16:01:21.153Z,70.37
2022-09-18T16:04:06.690Z,70.47
2022-09-18T16:06:49.877Z,70.72
2022-09-18T16:09:36.544Z,70.87
2022-09-18T16:12:42.560Z,70.84
2022-09-18T16:15:21.136Z,71.10
2022-09-18T16:17:59.240Z,71.00
2022-09-18T16:20:35.331Z,71.22
2022-09-18T16:23:20.319Z,71.21
2022-09-18T16:26:07.128Z,71.07
2022-09-18T16:28:44.230Z,71.10
2022-09-18T16:31:18.154Z,71.08
2022-09-18T16:33:55.574Z,71.16
2022-09-18T16:36:31.659Z,71.23
2022-09-18T16:39:08.182Z,71.21
2022-09-18T16:41:41.048Z,71.25
2022-09-18T16:44:15.379Z,71.23
2022-09-18T16:46:51.062Z,71.33
2022-09-18T16:49:26.828Z,71.45
2022-09-18T16:52:00.488Z,71.49
2022-09-18T16:54:32.727Z,71.57
2022-09-18T16:57:11.555Z,71.53
2022-09-18T16:59:45.791Z,71.71
2022-09-18T17:02:25.382Z,71.73
2022-09-18T17:04:58.166Z,71.79
2022-09-18T17:07:30.866Z,71.90
2022-09-18T17:10:03.199Z,71.97
2022-09-18T17:12:35.450Z,72.11
2022-09-18T17:15:09.077Z,72.11
2022-09-18T17:17:41.143Z,72.17
2022-09-18T17:20:17.800Z,72.08
2022-09-18T17:22:50.063Z,72.10
2022-09-18T17:25:22.265Z,72.11
2022-09-18T17:27:54.844Z,71.98
2022-09-18T17:30:26.898Z,72.13
2022-09-18T17:32:59.341Z,72.08
2022-09-18T17:35:31.422Z,72.10
2022-09-18T17:38:03.495Z,72.09
2022-09-18T17:40:35.720Z,72.11
2022-09-18T17:43:08.048Z,72.09
2022-09-18T17:45:40.128Z,72.12
2022-09-18T17:48:12.230Z,72.20
2022-09-18T17:50:44.854Z,72.36
2022-09-18T17:53:17.755Z,72.46
2022-09-18T17:55:51.952Z,72.36
2022-09-18T17:58:24.173Z,72.59
2022-09-18T18:00:56.735Z,72.64
2022-09-18T18:03:29.408Z,72.73
2022-09-18T18:06:03.035Z,72.78
2022-09-18T18:08:35.303Z,72.91
2022-09-18T18:11:09.963Z,72.93
2022-09-18T18:13:43.880Z,72.91
2022-09-18T18:16:21.529Z,72.57
2022-09-18T18:18:55.858Z,72.07
2022-09-18T18:21:29.036Z,72.12
2022-09-18T18:24:03.851Z,72.07
2022-09-18T18:26:36.408Z,72.23
2022-09-18T18:29:11.133Z,72.32
2022-09-18T18:31:44.352Z,72.58
2022-09-18T18:34:21.278Z,72.71
2022-09-18T18:36:53.347Z,72.81
2022-09-18T18:39:25.532Z,72.89
2022-09-18T18:41:58.030Z,73.03
2022-09-18T18:44:30.279Z,73.25
2022-09-18T18:47:02.473Z,73.30
2022-09-18T18:49:34.728Z,73.38
2022-09-18T18:52:07.543Z,73.57
2022-09-18T18:54:39.923Z,73.85
2022-09-18T18:57:12.187Z,73.89
2022-09-18T18:59:44.516Z,73.99
2022-09-18T19:02:17.373Z,74.17
2022-09-18T19:04:49.433Z,74.39
2022-09-18T19:07:21.569Z,74.35
2022-09-18T19:09:53.794Z,74.39
2022-09-18T19:12:26.724Z,74.54
2022-09-18T19:14:58.713Z,74.61
2022-09-18T19:17:30.748Z,74.70
2022-09-18T19:20:03.183Z,74.70
2022-09-18T19:22:35.252Z,74.84
2022-09-18T19:25:09.015Z,74.76
2022-09-18T19:27:42.346Z,74.89
2022-09-18T19:30:15.356Z,75.11
2022-09-18T19:32:47.374Z,75.43
2022-09-18T19:35:19.571Z,75.51
2022-09-18T19:37:51.596Z,75.54
2022-09-18T19:40:23.849Z,75.60
2022-09-18T19:42:59.407Z,75.74
2022-09-18T19:45:34.248Z,75.89
2022-09-18T19:48:17.261Z,76.07
2022-09-18T19:50:49.575Z,76.12
2022-09-18T19:53:22.362Z,76.41
2022-09-18T19:55:54.460Z,76.51
2022-09-18T19:58:27.377Z,76.32
2022-09-18T20:01:00.497Z,76.45
2022-09-18T20:03:32.860Z,76.50
2022-09-18T20:06:05.298Z,76.35
2022-09-18T20:08:37.356Z,76.53
2022-09-18T20:11:09.467Z,76.72
2022-09-18T20:13:42.278Z,76.76
2022-09-18T20:16:14.593Z,76.66
2022-09-18T20:18:47.707Z,76.61
2022-09-18T20:21:20.665Z,76.73
2022-09-18T20:23:56.551Z,76.69
2022-09-18T20:26:29.276Z,76.65
2022-09-18T20:29:01.449Z,76.64
2022-09-18T20:31:33.619Z,76.64
2022-09-18T20:34:06.036Z,76.71
2022-09-18T20:36:38.267Z,76.71
2022-09-18T20:39:10.670Z,76.76
2022-09-18T20:41:42.758Z,76.80
2022-09-18T20:44:15.588Z,76.94
2022-09-18T20:46:50.394Z,77.01
2022-09-18T20:49:23.164Z,76.96
2022-09-18T20:51:55.606Z,77.10
2022-09-18T20:54:27.947Z,77.25
2022-09-18T20:57:00.565Z,77.29
2022-09-18T20:59:32.736Z,77.54
2022-09-18T21:02:06.248Z,77.65
2022-09-18T21:04:39.197Z,77.88
2022-09-18T21:07:11.273Z,78.00
2022-09-18T21:09:43.320Z,78.21
2022-09-18T21:12:15.755Z,78.28
2022-09-18T21:14:48.198Z,78.44
2022-09-18T21:17:20.402Z,78.49
2022-09-18T21:19:52.427Z,78.50
2022-09-18T21:22:24.938Z,78.64
2022-09-18T21:24:56.968Z,78.70
2022-09-18T21:27:29.314Z,78.75
2022-09-18T21:30:01.351Z,78.65
2022-09-18T21:32:33.509Z,78.72
2022-09-18T21:35:06.061Z,78.84
2022-09-18T21:37:38.082Z,78.95
2022-09-18T21:40:12.883Z,79.04
2022-09-18T21:42:47.691Z,79.06
2022-09-18T21:45:20.789Z,79.08
2022-09-18T21:47:53.749Z,79.17
2022-09-18T21:50:25.998Z,79.13
2022-09-18T21:52:58.111Z,79.12
2022-09-18T21:55:37.587Z,79.19
2022-09-18T21:58:09.859Z,79.21
2022-09-18T22:00:41.718Z,79.23
2022-09-18T22:03:16.020Z,79.24
2022-09-18T22:05:47.916Z,79.44
2022-09-18T22:08:20.112Z,79.37
2022-09-18T22:10:51.932Z,79.42
2022-09-18T22:13:24.032Z,79.45
2022-09-18T22:15:57.188Z,79.49
2022-09-18T22:18:30.435Z,79.71
2022-09-18T22:21:02.242Z,79.81
2022-09-18T22:23:34.897Z,79.80
2022-09-18T22:26:07.067Z,79.94
2022-09-18T22:28:38.963Z,79.92
2022-09-18T22:31:10.923Z,80.00
2022-09-18T22:33:42.956Z,80.14
2022-09-18T22:36:15.122Z,80.31
2022-09-18T22:38:46.935Z,80.36
2022-09-18T22:41:18.908Z,80.31
2022-09-18T22:43:54.126Z,80.27
2022-09-18T22:46:27.244Z,80.21
2022-09-18T22:48:59.649Z,80.06
2022-09-18T22:51:31.703Z,80.12
2022-09-18T22:54:07.739Z,80.04
2022-09-18T22:56:44.575Z,80.03
2022-09-18T22:59:16.184Z,79.90
2022-09-18T23:01:51.979Z,79.74
2022-09-18T23:04:28.135Z,79.55
2022-09-18T23:07:01.964Z,79.73
2022-09-18T23:09:34.320Z,79.68
2022-09-18T23:12:07.403Z,79.43
2022-09-18T23:14:39.450Z,79.22
2022-09-18T23:17:11.811Z,79.05
2022-09-18T23:19:43.805Z,78.76
2022-09-18T23:22:16.807Z,78.61
2022-09-18T23:24:50.420Z,78.52
2022-09-18T23:27:22.477Z,78.48
2022-09-18T23:29:54.777Z,78.34
2022-09-18T23:32:26.967Z,78.16
2022-09-18T23:34:59.065Z,78.17
2022-09-18T23:37:31.291Z,78.11
2022-09-18T23:40:03.688Z,78.03
2022-09-18T23:42:36.178Z,77.81
2022-09-18T23:45:12.587Z,77.86
2022-09-18T23:47:44.781Z,77.76
2022-09-18T23:50:17.028Z,77.81
2022-09-18T23:52:49.073Z,77.77
2022-09-18T23:55:21.314Z,77.71
2022-09-18T23:57:53.349Z,77.54
